createdAt,value
2022-09-30T00:01:33.600Z,100125.00
2022-09-30T00:04:02.047Z,100126.72
2022-09-30T00:06:32.576Z,100128.50
2022-09-30T00:09:00.413Z,100131.16
2022-09-30T00:11:29.926Z,100131.25
2022-09-30T00:13:58.841Z,100138.25
2022-09-30T00:16:28.530Z,100139.25
2022-09-30T00:18:57.491Z,100138.50
2022-09-30T00:21:25.851Z,100134.09
2022-09-30T00:23:55.460Z,100146.41
2022-09-30T00:26:24.878Z,100139.50
2022-09-30T00:28:54.888Z,100148.91
2022-09-30T00:31:24.266Z,100143.75
2022-09-30T00:34:06.226Z,100143.84
2022-09-30T00:36:35.035Z,100148.19
2022-09-30T00:39:06.784Z,100149.06
2022-09-30T00:41:35.196Z,100148.22
2022-09-30T00:44:03.087Z,100150.75
2022-09-30T00:46:39.798Z,100152.56
2022-09-30T00:49:14.861Z,100158.66
2022-09-30T00:51:48.388Z,100160.34
2022-09-30T00:54:22.526Z,100165.53
2022-09-30T00:56:53.879Z,100159.47
2022-09-30T00:59:25.391Z,100155.22
2022-09-30T01:01:53.555Z,100157.03
2022-09-30T01:04:24.504Z,100162.28
2022-09-30T01:06:52.734Z,100160.59
2022-09-30T01:09:22.428Z,100164.06
2022-09-30T01:11:50.471Z,100162.50
2022-09-30T01:14:22.986Z,100172.84
2022-09-30T01:17:01.056Z,100162.50
2022-09-30T01:20:03.633Z,100158.13
2022-09-30T01:22:46.006Z,100157.44
2022-09-30T01:25:43.236Z,100167.03
2022-09-30T01:28:40.863Z,100172.16
2022-09-30T01:31:23.613Z,100173.13
2022-09-30T01:34:03.937Z,100173.06
2022-09-30T01:36:43.961Z,100173.13
2022-09-30T01:39:25.056Z,100180.13
2022-09-30T01:41:59.479Z,100184.53
2022-09-30T01:44:38.975Z,100176.84
2022-09-30T01:47:15.920Z,100185.50
2022-09-30T01:49:48.478Z,100189.84
2022-09-30T01:52:21.610Z,100190.72
2022-09-30T01:54:57.260Z,100182.16
2022-09-30T01:57:29.910Z,100178.72
2022-09-30T02:00:02.492Z,100189.06
2022-09-30T02:02:44.357Z,100187.34
2022-09-30T02:05:18.072Z,100178.81
2022-09-30T02:07:50.470Z,100190.09
2022-09-30T02:10:24.529Z,100183.16
2022-09-30T02:12:57.624Z,100184.88
2022-09-30T02:15:31.614Z,100189.25
2022-09-30T02:18:05.451Z,100175.44
2022-09-30T02:20:38.251Z,100185.84
2022-09-30T02:23:10.776Z,100185.84
2022-09-30T02:25:43.275Z,100196.22
2022-09-30T02:28:17.284Z,100191.88
2022-09-30T02:30:49.919Z,100184.22
2022-09-30T02:33:25.345Z,100186.78
2022-09-30T02:35:57.580Z,100192.84
2022-09-30T02:38:30.556Z,100185.00
2022-09-30T02:41:06.415Z,100182.41
2022-09-30T02:43:34.095Z,100182.44
2022-09-30T02:46:10.118Z,100174.75
2022-09-30T02:48:45.395Z,100176.44
2022-09-30T02:51:19.503Z,100177.28
2022-09-30T02:53:54.025Z,100183.38
2022-09-30T02:56:30.066Z,100176.50
2022-09-30T02:58:58.998Z,100175.66
2022-09-30T03:01:27.163Z,100186.03
2022-09-30T03:04:00.502Z,100186.88
2022-09-30T03:06:28.873Z,100191.22
2022-09-30T03:08:56.778Z,100191.31
2022-09-30T03:11:27.356Z,100190.41
2022-09-30T03:14:36.955Z,100190.44
2022-09-30T03:17:30.673Z,100200.78
2022-09-30T03:20:27.204Z,100206.00
2022-09-30T03:23:13.798Z,100199.06
2022-09-30T03:25:52.417Z,100207.72
2022-09-30T03:28:30.335Z,100215.56
2022-09-30T03:31:06.651Z,100222.47
2022-09-30T03:33:44.424Z,100217.31
2022-09-30T03:36:23.888Z,100221.69
2022-09-30T03:38:59.350Z,100213.94
2022-09-30T03:41:32.617Z,100212.19
2022-09-30T03:44:06.099Z,100223.44
2022-09-30T03:46:38.231Z,100211.34
2022-09-30T03:49:10.876Z,100218.28
2022-09-30T03:51:41.590Z,100227.78
2022-09-30T03:54:10.593Z,100225.19
2022-09-30T03:56:42.117Z,100227.78
2022-09-30T03:59:16.487Z,100235.59
2022-09-30T04:01:44.263Z,100247.72
2022-09-30T04:04:12.424Z,100258.06
2022-09-30T04:06:41.720Z,100258.94
2022-09-30T04:09:09.887Z,100264.16
2022-09-30T04:11:37.617Z,100261.59
2022-09-30T04:14:05.759Z,100265.06
2022-09-30T04:16:34.267Z,100271.09
2022-09-30T04:19:02.349Z,100270.25
2022-09-30T04:21:30.854Z,100272.84
2022-09-30T04:23:59.962Z,100271.13
2022-09-30T04:26:27.711Z,100284.94
2022-09-30T04:28:58.177Z,100283.22
2022-09-30T04:31:26.285Z,100284.09
2022-09-30T04:33:56.605Z,100285.81
2022-09-30T04:36:24.582Z,100278.94
2022-09-30T04:38:53.515Z,100291.88
2022-09-30T04:41:22.779Z,100291.88
2022-09-30T04:43:50.504Z,100286.72
2022-09-30T04:46:19.396Z,100286.72
2022-09-30T04:48:47.148Z,100288.44
2022-09-30T04:51:15.419Z,100293.63
2022-09-30T04:53:44.241Z,100290.19
2022-09-30T04:56:12.276Z,100299.69
2022-09-30T04:58:41.603Z,100293.63
2022-09-30T05:01:11.300Z,100302.28
2022-09-30T05:03:39.275Z,100302.28
2022-09-30T05:06:08.667Z,100304.00
2022-09-30T05:08:36.608Z,100306.59
2022-09-30T05:11:09.389Z,100312.63
2022-09-30T05:13:39.308Z,100309.19
2022-09-30T05:16:09.659Z,100317.81
2022-09-30T05:18:37.635Z,100321.25
2022-09-30T05:21:06.231Z,100328.16
2022-09-30T05:23:34.078Z,100331.63
2022-09-30T05:26:03.495Z,100322.13
2022-09-30T05:28:32.223Z,100322.13
2022-09-30T05:31:02.651Z,100329.91
2022-09-30T05:33:31.947Z,100321.28
2022-09-30T05:36:00.652Z,100329.06
2022-09-30T05:38:28.646Z,100330.78
2022-09-30T05:40:56.499Z,100333.34
2022-09-30T05:43:24.276Z,100336.81
2022-09-30T05:45:55.825Z,100336.81
2022-09-30T05:48:24.377Z,100342.84
2022-09-30T05:50:57.459Z,100329.03
2022-09-30T05:53:25.888Z,100329.91
2022-09-30T05:55:54.012Z,100331.63
2022-09-30T05:58:22.252Z,100331.63
2022-09-30T06:00:51.492Z,100334.22
2022-09-30T06:03:20.141Z,100353.22
2022-09-30T06:05:47.942Z,100352.34
2022-09-30T06:08:17.295Z,100360.13
2022-09-30T06:10:46.508Z,100366.16
2022-09-30T06:13:14.228Z,100371.34
2022-09-30T06:15:41.946Z,100373.06
2022-09-30T06:18:10.052Z,100367.88
2022-09-30T06:20:38.187Z,100381.69
2022-09-30T06:23:06.128Z,100380.78
2022-09-30T06:25:35.189Z,100391.06
2022-09-30T06:28:03.225Z,100398.78
2022-09-30T06:30:35.076Z,100412.63
2022-09-30T06:33:03.214Z,100410.88
2022-09-30T06:35:31.150Z,100405.59
2022-09-30T06:37:58.897Z,100410.78
2022-09-30T06:40:26.781Z,100412.41
2022-09-30T06:43:01.383Z,100406.25
2022-09-30T06:45:32.996Z,100409.72
2022-09-30T06:48:02.856Z,100403.50
2022-09-30T06:50:31.594Z,100400.22
2022-09-30T06:53:00.196Z,100398.06
2022-09-30T06:55:28.131Z,100409.03
2022-09-30T06:57:56.297Z,100413.25
2022-09-30T07:00:28.888Z,100419.75
2022-09-30T07:02:56.865Z,100424.94
2022-09-30T07:05:26.360Z,100417.66
2022-09-30T07:07:54.681Z,100420.94
2022-09-30T07:10:22.379Z,100422.69
2022-09-30T07:12:51.962Z,100420.72
2022-09-30T07:15:22.851Z,100431.16
2022-09-30T07:17:56.663Z,100423.09
2022-09-30T07:20:24.637Z,100429.50
2022-09-30T07:22:52.548Z,100434.81
2022-09-30T07:25:20.257Z,100440.59
2022-09-30T07:27:48.131Z,100451.84
2022-09-30T07:30:25.852Z,100456.16
2022-09-30T07:32:55.989Z,100450.72
2022-09-30T07:35:23.684Z,100449.00
2022-09-30T07:37:51.406Z,100446.81
2022-09-30T07:40:19.468Z,100450.75
2022-09-30T07:42:47.206Z,100458.41
2022-09-30T07:45:19.382Z,100455.75
2022-09-30T07:47:52.560Z,100471.78
2022-09-30T07:50:22.884Z,100470.25
2022-09-30T07:52:50.591Z,100465.97
2022-09-30T07:55:18.345Z,100466.88
2022-09-30T07:57:46.028Z,100463.22
2022-09-30T08:00:40.467Z,100464.94
2022-09-30T08:03:02.282Z,100467.34
2022-09-30T08:05:31.425Z,100463.91
2022-09-30T08:07:59.170Z,100466.72
2022-09-30T08:10:26.886Z,100471.34
2022-09-30T08:12:57.952Z,100468.69
2022-09-30T08:15:27.699Z,100474.34
2022-09-30T08:17:55.434Z,100474.66
2022-09-30T08:20:23.112Z,100477.56
2022-09-30T08:22:54.886Z,100464.00
2022-09-30T08:25:22.763Z,100479.94
2022-09-30T08:27:51.326Z,100476.03
2022-09-30T08:30:19.049Z,100477.88
2022-09-30T08:32:46.969Z,100477.06
2022-09-30T08:35:14.768Z,100472.56
2022-09-30T08:37:42.583Z,100477.50
2022-09-30T08:40:20.651Z,100476.09
2022-09-30T08:43:04.033Z,100477.16
2022-09-30T08:45:41.171Z,100476.75
2022-09-30T08:48:23.617Z,100468.00
2022-09-30T08:51:02.955Z,100477.72
2022-09-30T08:53:33.917Z,100467.06
2022-09-30T08:56:04.450Z,100477.78
2022-09-30T08:58:33.856Z,100473.38
2022-09-30T09:01:07.662Z,100475.44
2022-09-30T09:03:35.392Z,100472.78
2022-09-30T09:06:15.953Z,100476.06
2022-09-30T09:08:59.132Z,100469.81
2022-09-30T09:11:47.042Z,100465.59
2022-09-30T09:14:26.690Z,100464.72
2022-09-30T09:17:10.632Z,100461.28
2022-09-30T09:19:47.452Z,100461.81
2022-09-30T09:22:15.301Z,100470.38
2022-09-30T09:24:47.298Z,100458.72
2022-09-30T09:27:24.712Z,100463.25
2022-09-30T09:30:07.606Z,100453.03
2022-09-30T09:32:36.770Z,100461.63
2022-09-30T09:35:15.851Z,100461.59
2022-09-30T09:38:14.674Z,100454.38
2022-09-30T09:40:58.108Z,100464.22
2022-09-30T09:43:39.060Z,100453.59
2022-09-30T09:46:16.674Z,100452.09
2022-09-30T09:48:44.760Z,100461.44
2022-09-30T09:51:20.946Z,100458.03
2022-09-30T09:53:50.316Z,100461.72
2022-09-30T09:56:20.129Z,100460.97
2022-09-30T09:59:09.491Z,100457.34
2022-09-30T10:01:39.769Z,100451.69
2022-09-30T10:04:10.950Z,100449.19
2022-09-30T10:06:47.883Z,100457.97
2022-09-30T10:09:25.595Z,100449.28
2022-09-30T10:11:53.660Z,100452.69
2022-09-30T10:14:23.361Z,100448.13
2022-09-30T10:16:51.191Z,100446.47
2022-09-30T10:19:22.707Z,100450.06
2022-09-30T10:21:52.868Z,100452.88
2022-09-30T10:24:30.033Z,100450.53
2022-09-30T10:26:57.874Z,100439.88
2022-09-30T10:29:31.833Z,100439.63
2022-09-30T10:32:00.625Z,100444.53
2022-09-30T10:34:31.491Z,100432.88
2022-09-30T10:37:02.675Z,100439.28
2022-09-30T10:39:32.468Z,100436.19
2022-09-30T10:42:07.244Z,100440.22
2022-09-30T10:44:42.853Z,100435.25
2022-09-30T10:47:17.553Z,100431.34
2022-09-30T10:49:49.618Z,100426.63
2022-09-30T10:52:20.635Z,100440.34
2022-09-30T10:54:51.263Z,100435.28
2022-09-30T10:57:23.908Z,100436.69
2022-09-30T11:00:00.523Z,100433.06
2022-09-30T11:02:35.718Z,100427.72
2022-09-30T11:05:13.413Z,100428.19
2022-09-30T11:07:46.240Z,100429.19
2022-09-30T11:10:29.392Z,100424.69
2022-09-30T11:13:05.541Z,100423.38
2022-09-30T11:15:44.445Z,100421.28
2022-09-30T11:18:18.185Z,100426.16
2022-09-30T11:20:51.308Z,100429.81
2022-09-30T11:23:25.122Z,100424.75
2022-09-30T11:26:01.825Z,100420.97
2022-09-30T11:28:55.989Z,100425.50
2022-09-30T11:31:32.752Z,100432.53
2022-09-30T11:34:15.114Z,100429.25
2022-09-30T11:36:54.231Z,100425.06
2022-09-30T11:39:39.301Z,100433.16
2022-09-30T11:42:14.527Z,100429.38
2022-09-30T11:44:45.786Z,100439.84
2022-09-30T11:47:38.805Z,100437.88
2022-09-30T11:50:27.052Z,100434.69
2022-09-30T11:53:07.917Z,100436.94
2022-09-30T11:55:57.488Z,100437.22
2022-09-30T11:58:40.878Z,100442.97
2022-09-30T12:01:22.279Z,100438.69
2022-09-30T12:03:57.689Z,100437.00
2022-09-30T12:06:31.589Z,100432.75
2022-09-30T12:09:06.763Z,100431.47
2022-09-30T12:11:37.150Z,100425.19
2022-09-30T12:14:11.394Z,100422.91
2022-09-30T12:16:40.527Z,100425.97
2022-09-30T12:19:20.601Z,100428.34
2022-09-30T12:21:57.106Z,100421.69
2022-09-30T12:24:33.146Z,100412.97
2022-09-30T12:27:01.911Z,100415.94
2022-09-30T12:29:51.057Z,100413.63
2022-09-30T12:33:22.092Z,100414.91
2022-09-30T12:36:10.653Z,100408.31
2022-09-30T12:38:54.788Z,100392.75
2022-09-30T12:41:41.987Z,100386.13
2022-09-30T12:44:51.309Z,100379.38
2022-09-30T12:47:29.004Z,100381.31
2022-09-30T12:49:59.315Z,100379.84
2022-09-30T12:52:33.633Z,100386.41
2022-09-30T12:55:06.834Z,100390.00
2022-09-30T12:57:40.528Z,100379.84
2022-09-30T13:00:16.950Z,100378.34
2022-09-30T13:02:48.346Z,100376.44
2022-09-30T13:05:56.211Z,100369.84
2022-09-30T13:08:44.137Z,100372.06
2022-09-30T13:11:33.714Z,100358.75
2022-09-30T13:14:13.835Z,100355.47
2022-09-30T13:17:01.113Z,100363.88
2022-09-30T13:19:37.222Z,100366.13
2022-09-30T13:22:53.881Z,100373.66
2022-09-30T13:25:23.031Z,100365.91
2022-09-30T13:27:54.201Z,100364.28
2022-09-30T13:30:37.647Z,100361.13
2022-09-30T13:33:42.765Z,100352.16
2022-09-30T13:36:30.088Z,100353.03
2022-09-30T13:39:17.798Z,100346.44
2022-09-30T13:41:59.672Z,100346.19
2022-09-30T13:44:35.212Z,100355.22
2022-09-30T13:47:14.249Z,100348.19
2022-09-30T13:49:47.989Z,100351.53
2022-09-30T13:52:23.158Z,100353.09
2022-09-30T13:54:54.727Z,100349.31
2022-09-30T13:57:28.976Z,100341.28
2022-09-30T14:00:05.967Z,100337.78
2022-09-30T14:02:57.228Z,100340.03
2022-09-30T14:05:49.354Z,100332.88
2022-09-30T14:09:02.251Z,100333.31
2022-09-30T14:11:46.591Z,100324.47
2022-09-30T14:14:35.260Z,100330.09
2022-09-30T14:17:18.510Z,100322.88
2022-09-30T14:19:59.708Z,100319.34
2022-09-30T14:22:30.044Z,100324.56
2022-09-30T14:24:59.109Z,100324.88
2022-09-30T14:27:41.329Z,100318.44
2022-09-30T14:30:17.291Z,100300.75
2022-09-30T14:32:50.312Z,100311.31
2022-09-30T14:35:20.092Z,100307.19
2022-09-30T14:37:51.919Z,100304.00
2022-09-30T14:40:25.153Z,100302.22
2022-09-30T14:42:53.859Z,100299.19
2022-09-30T14:45:27.252Z,100299.47
2022-09-30T14:47:59.144Z,100296.03
2022-09-30T14:50:31.168Z,100290.94
2022-09-30T14:53:00.530Z,100291.31
2022-09-30T14:55:33.390Z,100291.72
2022-09-30T14:58:23.223Z,100292.88
2022-09-30T15:01:02.380Z,100287.13
2022-09-30T15:03:34.543Z,100286.72
2022-09-30T15:06:02.413Z,100284.75
2022-09-30T15:08:30.494Z,100274.19
2022-09-30T15:10:58.397Z,100290.44
2022-09-30T15:13:31.100Z,100274.78
2022-09-30T15:16:00.291Z,100277.19
2022-09-30T15:18:31.540Z,100274.78
2022-09-30T15:21:09.918Z,100273.50
2022-09-30T15:23:41.291Z,100276.50
2022-09-30T15:26:12.833Z,100273.75
2022-09-30T15:28:40.744Z,100270.22
2022-09-30T15:31:22.637Z,100270.78
2022-09-30T15:33:50.654Z,100274.41
2022-09-30T15:36:19.951Z,100273.22
2022-09-30T15:38:50.583Z,100266.16
2022-09-30T15:41:18.914Z,100263.63
2022-09-30T15:43:50.673Z,100263.28
2022-09-30T15:46:28.900Z,100269.09
2022-09-30T15:48:59.619Z,100277.09
2022-09-30T15:51:31.046Z,100279.56
2022-09-30T15:54:01.306Z,100274.97
2022-09-30T15:56:35.529Z,100278.41
2022-09-30T15:59:06.189Z,100286.34
2022-09-30T16:01:38.127Z,100280.19
2022-09-30T16:04:15.249Z,100281.97
2022-09-30T16:06:49.243Z,100295.97
2022-09-30T16:09:31.789Z,100297.50
2022-09-30T16:12:05.178Z,100296.06
2022-09-30T16:14:37.282Z,100294.91
2022-09-30T16:17:07.506Z,100296.63
2022-09-30T16:19:35.581Z,100302.16
2022-09-30T16:22:03.284Z,100293.91
2022-09-30T16:24:48.427Z,100293.72
2022-09-30T16:27:31.431Z,100300.88
2022-09-30T16:30:00.099Z,100301.72
2022-09-30T16:32:39.319Z,100304.91
2022-09-30T16:35:15.602Z,100305.13
2022-09-30T16:37:44.156Z,100310.56
2022-09-30T16:40:20.097Z,100314.16
2022-09-30T16:42:48.056Z,100307.56
2022-09-30T16:45:16.819Z,100309.59
2022-09-30T16:47:46.730Z,100306.84
2022-09-30T16:50:25.449Z,100302.81
2022-09-30T16:52:53.434Z,100307.91
2022-09-30T16:55:21.543Z,100312.38
2022-09-30T16:57:50.273Z,100318.38
2022-09-30T17:00:18.942Z,100319.69
2022-09-30T17:02:49.616Z,100321.78
2022-09-30T17:05:19.967Z,100323.03
2022-09-30T17:07:50.460Z,100324.41
2022-09-30T17:10:26.044Z,100327.16
2022-09-30T17:12:54.190Z,100320.09
2022-09-30T17:15:22.858Z,100319.22
2022-09-30T17:17:52.659Z,100327.50
2022-09-30T17:20:20.556Z,100319.84
2022-09-30T17:22:48.666Z,100313.38
2022-09-30T17:25:17.164Z,100313.50
2022-09-30T17:27:48.770Z,100312.84
2022-09-30T17:30:17.210Z,100309.59
2022-09-30T17:32:45.521Z,100320.78
2022-09-30T17:35:15.109Z,100303.59
2022-09-30T17:37:46.241Z,100296.31
2022-09-30T17:40:32.469Z,100309.97
2022-09-30T17:43:10.931Z,100321.94
2022-09-30T17:45:40.810Z,100323.88
2022-09-30T17:48:09.716Z,100331.44
2022-09-30T17:50:40.683Z,100323.63
2022-09-30T17:53:08.676Z,100320.31
2022-09-30T17:55:36.630Z,100320.91
2022-09-30T17:58:04.422Z,100315.06
2022-09-30T18:00:33.428Z,100315.53
2022-09-30T18:03:01.126Z,100315.06
2022-09-30T18:05:28.883Z,100315.31
2022-09-30T18:07:58.187Z,100319.84
2022-09-30T18:10:26.507Z,100323.91
2022-09-30T18:12:55.065Z,100337.16
2022-09-30T18:15:23.911Z,100322.66
2022-09-30T18:17:51.732Z,100320.00
2022-09-30T18:20:21.982Z,100318.94
2022-09-30T18:22:52.628Z,100328.94
2022-09-30T18:25:22.842Z,100316.34
2022-09-30T18:27:54.715Z,100318.47
2022-09-30T18:30:22.992Z,100320.16
2022-09-30T18:32:52.192Z,100315.19
2022-09-30T18:35:22.836Z,100318.84
2022-09-30T18:37:51.241Z,100325.53
2022-09-30T18:40:23.045Z,100334.72
2022-09-30T18:42:55.490Z,100344.41
2022-09-30T18:45:23.366Z,100334.09
2022-09-30T18:47:55.417Z,100345.16
2022-09-30T18:50:24.528Z,100355.53
2022-09-30T18:52:52.810Z,100354.44
2022-09-30T18:55:22.231Z,100359.59
2022-09-30T18:57:50.363Z,100363.44
2022-09-30T19:00:18.713Z,100362.25
2022-09-30T19:02:46.382Z,100358.84
2022-09-30T19:05:16.599Z,100363.66
2022-09-30T19:07:45.045Z,100370.25
2022-09-30T19:10:13.128Z,100370.72
2022-09-30T19:12:44.429Z,100368.09
2022-09-30T19:15:16.010Z,100376.31
2022-09-30T19:17:43.885Z,100371.84
2022-09-30T19:20:12.361Z,100366.31
2022-09-30T19:22:40.103Z,100367.78
2022-09-30T19:25:10.528Z,100358.47
2022-09-30T19:27:39.263Z,100349.22
2022-09-30T19:30:09.746Z,100351.91
2022-09-30T19:32:37.751Z,100344.47
2022-09-30T19:35:08.032Z,100353.13
2022-09-30T19:37:35.751Z,100358.53
2022-09-30T19:40:18.042Z,100353.41
2022-09-30T19:42:49.526Z,100341.78
2022-09-30T19:45:23.242Z,100347.97
2022-09-30T19:47:52.722Z,100339.59
2022-09-30T19:50:20.400Z,100340.63
2022-09-30T19:52:56.686Z,100336.41
2022-09-30T19:55:25.848Z,100337.16
2022-09-30T19:57:53.923Z,100352.09
2022-09-30T20:00:23.079Z,100344.25
2022-09-30T20:02:52.534Z,100339.09
2022-09-30T20:05:20.527Z,100348.69
2022-09-30T20:07:51.213Z,100340.09
2022-09-30T20:10:19.464Z,100344.53
2022-09-30T20:12:47.656Z,100340.06
2022-09-30T20:15:40.462Z,100353.06
2022-09-30T20:18:13.238Z,100342.78
2022-09-30T20:20:45.322Z,100346.16
2022-09-30T20:23:13.430Z,100354.19
2022-09-30T20:25:41.278Z,100353.50
2022-09-30T20:28:09.560Z,100356.31
2022-09-30T20:30:45.441Z,100354.75
2022-09-30T20:33:16.495Z,100353.13
2022-09-30T20:35:44.694Z,100357.50
2022-09-30T20:38:15.283Z,100350.53
2022-09-30T20:40:43.265Z,100347.81
2022-09-30T20:43:11.463Z,100335.78
2022-09-30T20:45:41.110Z,100336.59
2022-09-30T20:48:09.482Z,100326.25
2022-09-30T20:50:43.397Z,100329.78
2022-09-30T20:53:13.799Z,100319.34
2022-09-30T20:55:44.495Z,100311.41
2022-09-30T20:58:13.677Z,100305.25
2022-09-30T21:00:42.521Z,100311.34
2022-09-30T21:03:12.857Z,100300.94
2022-09-30T21:05:42.141Z,100302.69
2022-09-30T21:08:10.044Z,100298.31
2022-09-30T21:10:38.571Z,100287.94
2022-09-30T21:13:11.306Z,100289.69
2022-09-30T21:15:39.464Z,100276.50
2022-09-30T21:18:07.295Z,100283.66
2022-09-30T21:20:35.114Z,100279.13
2022-09-30T21:23:04.316Z,100270.25
2022-09-30T21:25:32.846Z,100273.59
2022-09-30T21:28:00.645Z,100261.66
2022-09-30T21:30:28.959Z,100252.91
2022-09-30T21:32:56.664Z,100253.97
2022-09-30T21:35:26.354Z,100252.09
2022-09-30T21:37:54.053Z,100257.41
2022-09-30T21:40:23.138Z,100254.97
2022-09-30T21:42:50.956Z,100253.97
2022-09-30T21:45:20.051Z,100259.94
2022-09-30T21:47:47.950Z,100261.66
2022-09-30T21:50:15.852Z,100258.16
2022-09-30T21:52:43.557Z,100256.53
2022-09-30T21:55:12.453Z,100252.19
2022-09-30T21:57:41.651Z,100257.38
2022-09-30T22:00:10.814Z,100258.19
2022-09-30T22:02:41.602Z,100259.66
2022-09-30T22:05:10.221Z,100254.69
2022-09-30T22:07:38.810Z,100245.09
2022-09-30T22:10:08.975Z,100239.84
2022-09-30T22:12:36.728Z,100246.03
2022-09-30T22:15:06.643Z,100239.06
2022-09-30T22:17:34.478Z,100253.00
2022-09-30T22:20:02.415Z,100249.63
2022-09-30T22:22:30.164Z,100247.88
2022-09-30T22:24:57.864Z,100241.69
2022-09-30T22:27:25.647Z,100234.03
2022-09-30T22:29:53.503Z,100242.66
2022-09-30T22:32:22.642Z,100239.22
2022-09-30T22:35:07.725Z,100235.69
2022-09-30T22:38:01.460Z,100233.94
2022-09-30T22:40:29.421Z,100228.78
2022-09-30T22:42:57.236Z,100225.38
2022-09-30T22:45:25.414Z,100224.41
2022-09-30T22:47:56.734Z,100206.31
2022-09-30T22:50:25.974Z,100218.41
2022-09-30T22:52:53.941Z,100212.38
2022-09-30T22:55:22.183Z,100214.81
2022-09-30T22:57:49.949Z,100217.41
2022-09-30T23:00:17.854Z,100217.59
2022-09-30T23:02:45.612Z,100212.31
2022-09-30T23:05:15.294Z,100204.53
2022-09-30T23:07:43.112Z,100198.38
2022-09-30T23:10:11.121Z,100197.53
2022-09-30T23:12:38.857Z,100197.50
2022-09-30T23:15:08.387Z,100201.03
2022-09-30T23:17:36.225Z,100193.97
2022-09-30T23:20:04.671Z,100194.81
2022-09-30T23:22:33.920Z,100192.19
2022-09-30T23:25:02.713Z,100202.56
2022-09-30T23:27:30.510Z,100197.34
2022-09-30T23:29:58.188Z,100193.84
2022-09-30T23:32:25.926Z,100193.75
2022-09-30T23:34:53.929Z,100186.00
2022-09-30T23:37:21.832Z,100176.28
2022-09-30T23:39:50.897Z,100178.00
2022-09-30T23:42:18.814Z,100171.06
2022-09-30T23:44:46.487Z,100169.31
2022-09-30T23:47:20.050Z,100160.66
2022-09-30T23:49:48.075Z,100153.63
2022-09-30T23:52:17.351Z,100153.59
2022-09-30T23:54:45.141Z,100153.44
2022-09-30T23:57:14.367Z,100143.81
2022-09-30T23:59:42.108Z,100142.91
